Time;durP1;ratioP1;P1;durP2;ratioP2;P2;SDS_P1;SDS_P2;PMS_P1;PMS_P2;Temp;Humidity;BMP_temperature;BMP_pressure;BME280_temperature;BME280_humidity;BME280_pressure;Samples;Min_cycle;Max_cycle;Signal;HPM_P1;HPM_P2
2022/12/21 00:01:37;;;;;;;13.80;12.90;;;;;;;;;;5017339;28;20793;-57
2022/12/21 00:04:03;;;;;;;22.95;13.40;;;;;;;;;;5014823;28;20029;-56
2022/12/21 00:06:32;;;;;;;13.40;12.60;;;;;;;;;;5015889;28;20073;-57
2022/12/21 00:08:59;;;;;;;13.57;12.57;;;;;;;;;;5014619;28;20052;-56
2022/12/21 00:11:26;;;;;;;12.20;11.40;;;;;;;;;;5011292;28;20333;-57
2022/12/21 00:13:52;;;;;;;13.82;12.93;;;;;;;;;;5012307;28;20038;-57
2022/12/21 00:16:20;;;;;;;13.40;12.60;;;;;;;;;;5014674;28;20040;-57
2022/12/21 00:18:46;;;;;;;15.02;13.68;;;;;;;;;;5014393;28;20041;-57
2022/12/21 00:21:20;;;;;;;13.68;12.88;;;;;;;;;;5013556;28;20021;-57
2022/12/21 00:23:47;;;;;;;14.23;13.23;;;;;;;;;;5015972;28;20087;-57
2022/12/21 00:26:15;;;;;;;14.00;13.07;;;;;;;;;;5013127;28;20045;-57
2022/12/21 00:28:41;;;;;;;12.93;12.13;;;;;;;;;;5013421;28;20057;-57
2022/12/21 00:31:09;;;;;;;13.52;12.73;;;;;;;;;;5013281;28;20065;-57
2022/12/21 00:33:36;;;;;;;14.82;13.85;;;;;;;;;;5014304;28;20037;-56
2022/12/21 00:36:01;;;;;;;13.15;12.23;;;;;;;;;;5015165;28;20025;-57
2022/12/21 00:38:27;;;;;;;16.17;14.98;;;;;;;;;;5012064;28;20189;-57
2022/12/21 00:41:02;;;;;;;15.30;14.30;;;;;;;;;;5014724;28;20033;-57
2022/12/21 00:43:28;;;;;;;14.63;13.52;;;;;;;;;;5013557;28;20025;-57
2022/12/21 00:45:53;;;;;;;14.43;13.48;;;;;;;;;;5015425;28;20108;-57
2022/12/21 00:48:19;;;;;;;14.27;13.27;;;;;;;;;;5014737;28;20041;-56
2022/12/21 00:50:44;;;;;;;13.88;12.98;;;;;;;;;;5015039;28;20467;-57
2022/12/21 00:53:10;;;;;;;12.75;11.98;;;;;;;;;;5012968;28;20080;-57
2022/12/21 00:55:35;;;;;;;14.18;13.27;;;;;;;;;;5011804;28;20115;-57
2022/12/21 00:58:00;;;;;;;14.48;13.57;;;;;;;;;;5014035;28;20057;-57
2022/12/21 01:00:26;;;;;;;16.25;15.25;;;;;;;;;;5013547;28;20033;-57
2022/12/21 01:02:52;;;;;;;14.18;13.27;;;;;;;;;;5012378;28;20052;-57
2022/12/21 01:05:17;;;;;;;14.82;13.82;;;;;;;;;;5014831;28;20043;-57
2022/12/21 01:07:43;;;;;;;15.20;14.20;;;;;;;;;;5010437;28;20068;-57
2022/12/21 01:10:08;;;;;;;13.35;12.55;;;;;;;;;;5012199;28;20049;-56
2022/12/21 01:12:34;;;;;;;13.82;13.00;;;;;;;;;;5016765;28;20041;-57
2022/12/21 01:14:59;;;;;;;15.27;14.32;;;;;;;;;;5015213;28;20524;-57
2022/12/21 01:17:25;;;;;;;15.23;14.32;;;;;;;;;;5010440;28;20128;-56
2022/12/21 01:19:50;;;;;;;15.55;14.45;;;;;;;;;;5010088;28;20122;-57
2022/12/21 01:22:16;;;;;;;15.70;14.60;;;;;;;;;;5014579;28;20128;-56
2022/12/21 01:24:41;;;;;;;15.90;14.90;;;;;;;;;;5008493;28;20045;-57
2022/12/21 01:27:06;;;;;;;14.85;13.85;;;;;;;;;;5010764;28;20033;-57
2022/12/21 01:29:32;;;;;;;15.70;14.77;;;;;;;;;;5011300;28;20030;-57
2022/12/21 01:31:57;;;;;;;16.35;15.27;;;;;;;;;;5015345;28;20111;-56
2022/12/21 01:34:22;;;;;;;16.40;15.40;;;;;;;;;;5011541;28;20041;-57
2022/12/21 01:36:48;;;;;;;15.20;14.30;;;;;;;;;;5016136;28;20481;-57
2022/12/21 01:39:13;;;;;;;15.60;14.70;;;;;;;;;;5012567;28;20038;-57
2022/12/21 01:41:38;;;;;;;15.07;14.18;;;;;;;;;;5015406;28;20044;-57
2022/12/21 01:44:42;;;;;;;15.38;14.48;;;;;;;;;;5011758;28;20052;-57
2022/12/21 01:47:14;;;;;;;15.88;14.77;;;;;;;;;;5011630;28;20244;-57
2022/12/21 01:49:39;;;;;;;15.82;14.55;;;;;;;;;;5008805;28;20033;-57
2022/12/21 01:52:11;;;;;;;15.20;14.20;;;;;;;;;;5014507;28;20037;-56
2022/12/21 01:55:00;;;;;;;15.93;15.00;;;;;;;;;;5012381;28;20087;-58
2022/12/21 01:57:29;;;;;;;14.95;14.05;;;;;;;;;;5013222;28;20041;-58
2022/12/21 01:59:58;;;;;;;15.95;14.95;;;;;;;;;;5010469;28;20460;-58
2022/12/21 02:02:27;;;;;;;16.50;15.30;;;;;;;;;;5011049;28;20037;-58
2022/12/21 02:04:55;;;;;;;15.80;14.75;;;;;;;;;;5013686;28;20455;-60
2022/12/21 02:07:21;;;;;;;16.67;15.63;;;;;;;;;;5012500;28;20132;-59
2022/12/21 02:09:47;;;;;;;15.98;14.98;;;;;;;;;;5011262;28;20108;-58
2022/12/21 02:12:15;;;;;;;16.50;15.50;;;;;;;;;;5014114;28;20037;-58
2022/12/21 02:14:44;;;;;;;16.08;15.05;;;;;;;;;;5012779;28;21350;-58
2022/12/21 02:17:40;;;;;;;17.02;16.00;;;;;;;;;;5014364;28;20049;-58
2022/12/21 02:20:27;;;;;;;16.15;15.25;;;;;;;;;;5013095;28;20061;-58
2022/12/21 02:23:31;;;;;;;15.25;14.35;;;;;;;;;;5010280;28;20038;-58
2022/12/21 02:26:16;;;;;;;18.35;17.25;;;;;;;;;;5013779;28;20578;-58
2022/12/21 02:29:10;;;;;;;17.10;16.10;;;;;;;;;;5011978;28;20049;-59
2022/12/21 02:32:09;;;;;;;16.45;15.45;;;;;;;;;;5010146;28;20159;-58
2022/12/21 02:34:48;;;;;;;16.10;15.10;;;;;;;;;;5011881;28;20073;-58
2022/12/21 02:37:19;;;;;;;18.60;17.40;;;;;;;;;;5019804;28;20365;-58
2022/12/21 02:39:54;;;;;;;16.27;15.15;;;;;;;;;;5017669;28;20021;-58
2022/12/21 02:45:38;;;;;;;16.23;15.13;;;;;;;;;;5017757;28;20490;-58
2022/12/21 02:48:17;;;;;;;14.85;13.95;;;;;;;;;;5019358;28;20052;-58
2022/12/21 02:50:48;;;;;;;15.55;14.55;;;;;;;;;;5016588;28;20053;-58
2022/12/21 02:53:20;;;;;;;16.73;15.68;;;;;;;;;;5015796;28;20063;-58
2022/12/21 02:55:46;;;;;;;18.00;16.90;;;;;;;;;;5018616;28;20084;-57
2022/12/21 02:58:11;;;;;;;17.15;16.15;;;;;;;;;;5017356;28;20566;-57
2022/12/21 03:00:59;;;;;;;16.52;15.52;;;;;;;;;;5018656;28;20120;-57
2022/12/21 03:03:56;;;;;;;15.75;14.75;;;;;;;;;;5004898;28;20079;-57
2022/12/21 03:06:49;;;;;;;16.70;15.70;;;;;;;;;;5017849;28;20040;-54
2022/12/21 03:09:29;;;;;;;16.95;15.85;;;;;;;;;;5015162;28;20049;-56
2022/12/21 03:12:13;;;;;;;16.88;15.82;;;;;;;;;;5015180;28;20034;-56
2022/12/21 03:14:52;;;;;;;17.40;16.33;;;;;;;;;;5013590;28;20361;-57
2022/12/21 03:17:32;;;;;;;18.25;17.13;;;;;;;;;;5015479;28;20033;-56
2022/12/21 03:19:57;;;;;;;16.85;15.85;;;;;;;;;;5017476;28;20224;-56
2022/12/21 03:22:31;;;;;;;15.52;14.50;;;;;;;;;;5013006;28;20141;-57
2022/12/21 03:25:34;;;;;;;18.52;17.33;;;;;;;;;;5015937;28;20123;-57
2022/12/21 03:28:03;;;;;;;17.00;16.00;;;;;;;;;;5015347;28;20041;-55
2022/12/21 03:30:32;;;;;;;14.98;14.07;;;;;;;;;;5014579;28;20034;-56
2022/12/21 03:33:01;;;;;;;16.30;15.25;;;;;;;;;;5015472;28;20037;-56
2022/12/21 03:35:39;;;;;;;17.05;15.90;;;;;;;;;;5015915;28;20048;-57
2022/12/21 03:38:09;;;;;;;18.17;17.08;;;;;;;;;;5015605;28;20084;-56
2022/12/21 03:40:38;;;;;;;18.83;17.60;;;;;;;;;;5023243;28;20040;-57
2022/12/21 03:43:08;;;;;;;16.00;14.77;;;;;;;;;;5013972;28;20089;-57
2022/12/21 03:45:39;;;;;;;17.00;16.00;;;;;;;;;;5012490;28;20037;-56
2022/12/21 03:48:24;;;;;;;17.92;16.92;;;;;;;;;;5015977;28;20038;-57
2022/12/21 03:50:53;;;;;;;16.17;15.20;;;;;;;;;;5016269;28;20100;-57
2022/12/21 03:53:33;;;;;;;17.65;16.63;;;;;;;;;;5013903;28;20065;-57
2022/12/21 03:56:02;;;;;;;17.80;16.80;;;;;;;;;;5020328;28;20471;-57
2022/12/21 03:58:27;;;;;;;17.02;15.93;;;;;;;;;;5013693;28;20037;-57
2022/12/21 04:01:22;;;;;;;17.52;16.45;;;;;;;;;;5013891;28;20375;-57
2022/12/21 04:03:56;;;;;;;17.77;16.35;;;;;;;;;;5015279;28;20124;-57
2022/12/21 04:06:25;;;;;;;16.98;15.98;;;;;;;;;;5016193;28;20037;-57
2022/12/21 04:08:51;;;;;;;18.63;17.48;;;;;;;;;;5014022;28;20068;-57
2022/12/21 04:14:00;;;;;;;19.35;18.05;;;;;;;;;;5015969;28;20362;-56
2022/12/21 04:16:27;;;;;;;17.08;16.08;;;;;;;;;;5012640;28;20037;-57
2022/12/21 04:21:36;;;;;;;16.55;15.45;;;;;;;;;;5015705;28;20511;-57
2022/12/21 04:29:34;;;;;;;20.00;18.80;;;;;;;;;;5016144;28;20554;-57
2022/12/21 04:31:59;;;;;;;18.30;17.20;;;;;;;;;;5014489;28;20037;-57
2022/12/21 04:34:24;;;;;;;16.70;15.80;;;;;;;;;;5014473;28;20042;-57
2022/12/21 04:39:34;;;;;;;17.95;16.88;;;;;;;;;;5012018;28;20463;-56
2022/12/21 04:41:59;;;;;;;18.90;17.60;;;;;;;;;;5014225;28;20053;-56
2022/12/21 04:44:24;;;;;;;19.30;18.10;;;;;;;;;;5017047;28;20640;-55
2022/12/21 04:46:51;;;;;;;18.30;17.15;;;;;;;;;;5012843;28;20456;-57
2022/12/21 04:49:16;;;;;;;19.10;17.90;;;;;;;;;;5014165;28;20034;-56
2022/12/21 04:51:41;;;;;;;20.20;18.88;;;;;;;;;;5014509;28;20033;-56
2022/12/21 04:54:07;;;;;;;17.23;16.02;;;;;;;;;;5013719;28;21174;-56
2022/12/21 04:56:32;;;;;;;19.30;18.20;;;;;;;;;;5016060;28;20128;-56
2022/12/21 04:58:58;;;;;;;18.95;17.85;;;;;;;;;;5012502;28;20041;-57
2022/12/21 05:01:23;;;;;;;19.15;18.05;;;;;;;;;;5013578;28;20038;-57
2022/12/21 05:03:49;;;;;;;19.50;18.30;;;;;;;;;;5011277;28;20029;-57
2022/12/21 05:06:17;;;;;;;20.33;19.13;;;;;;;;;;5013884;28;20471;-57
2022/12/21 05:08:43;;;;;;;19.77;18.58;;;;;;;;;;5012991;28;20053;-57
2022/12/21 05:11:23;;;;;;;22.30;21.00;;;;;;;;;;5014187;28;20073;-57
2022/12/21 05:13:49;;;;;;;18.80;17.77;;;;;;;;;;5013565;28;20467;-56
2022/12/21 05:16:17;;;;;;;20.05;18.85;;;;;;;;;;5013310;28;20132;-57
2022/12/21 05:18:43;;;;;;;20.10;18.92;;;;;;;;;;5013376;28;20049;-56
2022/12/21 05:21:08;;;;;;;20.27;19.08;;;;;;;;;;5013284;28;20483;-57
2022/12/21 05:23:34;;;;;;;21.05;19.80;;;;;;;;;;5014656;28;20100;-56
2022/12/21 05:26:01;;;;;;;19.77;18.60;;;;;;;;;;5011666;28;20477;-56
2022/12/21 05:28:27;;;;;;;21.08;19.88;;;;;;;;;;5011841;28;20076;-57
2022/12/21 05:30:52;;;;;;;20.33;19.23;;;;;;;;;;5013622;28;20041;-57
2022/12/21 05:33:17;;;;;;;21.42;20.23;;;;;;;;;;5013981;28;20613;-56
2022/12/21 05:35:43;;;;;;;21.13;19.80;;;;;;;;;;5016785;28;20515;-57
2022/12/21 05:38:08;;;;;;;22.25;20.95;;;;;;;;;;5013271;28;20125;-57
2022/12/21 05:40:34;;;;;;;22.00;20.75;;;;;;;;;;5012289;28;20522;-56
2022/12/21 05:43:04;;;;;;;21.85;20.65;;;;;;;;;;5012482;28;20030;-57
2022/12/21 05:45:29;;;;;;;20.30;19.20;;;;;;;;;;5015668;28;20560;-57
2022/12/21 05:47:55;;;;;;;22.50;21.20;;;;;;;;;;5013450;28;20034;-57
2022/12/21 05:50:21;;;;;;;23.55;22.15;;;;;;;;;;5014878;28;20630;-57
2022/12/21 05:52:46;;;;;;;23.60;22.30;;;;;;;;;;5014921;28;20048;-57
2022/12/21 05:55:12;;;;;;;23.67;22.38;;;;;;;;;;5011564;28;20565;-56
2022/12/21 05:57:37;;;;;;;22.80;21.50;;;;;;;;;;5012202;28;20781;-56
2022/12/21 06:00:03;;;;;;;23.75;22.35;;;;;;;;;;5014766;28;20030;-57
2022/12/21 06:02:29;;;;;;;23.88;22.48;;;;;;;;;;5012219;28;20052;-56
2022/12/21 06:04:54;;;;;;;24.75;23.15;;;;;;;;;;5011044;28;20455;-56
2022/12/21 06:07:19;;;;;;;22.85;21.55;;;;;;;;;;5014965;28;20031;-56
2022/12/21 06:09:45;;;;;;;21.52;20.23;;;;;;;;;;5012383;28;20052;-57
2022/12/21 06:12:10;;;;;;;22.38;20.95;;;;;;;;;;5016536;28;20431;-56
2022/12/21 06:14:35;;;;;;;22.42;21.08;;;;;;;;;;5016900;28;20033;-57
2022/12/21 06:17:01;;;;;;;24.65;22.20;;;;;;;;;;5018207;28;20053;-57
2022/12/21 06:19:26;;;;;;;22.08;20.73;;;;;;;;;;5016240;28;20116;-57
2022/12/21 06:21:51;;;;;;;24.60;23.17;;;;;;;;;;5021419;28;20037;-57
2022/12/21 06:24:17;;;;;;;20.98;19.77;;;;;;;;;;5018646;28;20038;-56
2022/12/21 06:26:42;;;;;;;23.70;22.35;;;;;;;;;;5017677;28;20531;-57
2022/12/21 06:29:08;;;;;;;23.77;22.40;;;;;;;;;;5002257;28;20048;-57
2022/12/21 06:31:33;;;;;;;23.90;22.48;;;;;;;;;;5015149;28;20087;-57
2022/12/21 06:33:58;;;;;;;23.95;22.55;;;;;;;;;;5016321;28;20095;-56
2022/12/21 06:36:24;;;;;;;24.15;22.85;;;;;;;;;;5014650;28;20045;-58
2022/12/21 06:38:49;;;;;;;25.70;24.30;;;;;;;;;;5017074;28;20037;-59
2022/12/21 06:41:16;;;;;;;25.85;24.33;;;;;;;;;;5016325;28;20041;-59
2022/12/21 06:43:42;;;;;;;25.38;23.88;;;;;;;;;;5017067;28;20038;-57
2022/12/21 06:46:11;;;;;;;29.65;27.98;;;;;;;;;;5016075;28;20037;-58
2022/12/21 06:48:37;;;;;;;28.77;27.17;;;;;;;;;;5014637;28;20037;-57
2022/12/21 06:51:06;;;;;;;29.40;27.70;;;;;;;;;;5017296;28;20476;-59
2022/12/21 06:53:34;;;;;;;26.20;24.70;;;;;;;;;;5016356;28;20037;-60
2022/12/21 06:56:30;;;;;;;27.80;26.30;;;;;;;;;;5014981;28;20061;-60
2022/12/21 06:58:55;;;;;;;27.52;25.98;;;;;;;;;;5010735;28;20434;-60
2022/12/21 07:01:24;;;;;;;27.95;26.35;;;;;;;;;;5013527;28;20030;-59
2022/12/21 07:03:49;;;;;;;30.67;28.88;;;;;;;;;;5014960;28;20084;-60
2022/12/21 07:06:16;;;;;;;28.90;27.20;;;;;;;;;;5013170;28;20468;-60
2022/12/21 07:08:42;;;;;;;29.13;27.52;;;;;;;;;;5013543;28;20039;-58
2022/12/21 07:11:10;;;;;;;28.15;26.63;;;;;;;;;;5014383;28;20439;-58
2022/12/21 07:13:40;;;;;;;27.73;26.20;;;;;;;;;;5014897;28;20042;-58
2022/12/21 07:16:06;;;;;;;28.45;26.85;;;;;;;;;;5019593;28;20049;-58
2022/12/21 07:18:32;;;;;;;28.30;26.75;;;;;;;;;;5015285;28;20033;-60
2022/12/21 07:21:02;;;;;;;29.30;27.60;;;;;;;;;;5012123;28;20038;-59
2022/12/21 07:23:28;;;;;;;28.27;26.48;;;;;;;;;;5014083;28;20040;-60
2022/12/21 07:25:53;;;;;;;29.40;27.70;;;;;;;;;;5014126;28;20145;-60
2022/12/21 07:28:23;;;;;;;28.52;27.00;;;;;;;;;;5018338;28;20467;-58
2022/12/21 07:30:49;;;;;;;28.38;26.75;;;;;;;;;;5014312;28;20069;-58
2022/12/21 07:33:18;;;;;;;29.75;28.08;;;;;;;;;;5016988;28;20033;-58
2022/12/21 07:35:45;;;;;;;28.00;26.40;;;;;;;;;;5015003;28;20487;-60
2022/12/21 07:38:10;;;;;;;26.77;25.27;;;;;;;;;;5016588;28;20048;-59
2022/12/21 07:40:37;;;;;;;26.92;25.42;;;;;;;;;;5014796;28;20034;-58
2022/12/21 07:43:10;;;;;;;25.30;23.90;;;;;;;;;;5014440;28;20029;-58
2022/12/21 07:45:38;;;;;;;25.23;23.63;;;;;;;;;;5014311;28;20030;-59
2022/12/21 07:48:04;;;;;;;27.33;25.67;;;;;;;;;;5017954;28;20025;-59
2022/12/21 07:50:30;;;;;;;27.20;25.60;;;;;;;;;;5015689;28;20116;-60
2022/12/21 07:52:57;;;;;;;24.90;23.60;;;;;;;;;;5014418;28;20315;-60
2022/12/21 07:55:23;;;;;;;29.70;28.00;;;;;;;;;;5014667;28;20551;-60
2022/12/21 07:57:49;;;;;;;29.33;27.45;;;;;;;;;;5012709;28;20033;-60
2022/12/21 08:00:14;;;;;;;27.10;25.52;;;;;;;;;;5016293;28;20029;-60
2022/12/21 08:02:40;;;;;;;27.15;25.65;;;;;;;;;;5016881;28;20034;-59
2022/12/21 08:05:05;;;;;;;29.38;27.83;;;;;;;;;;5017757;28;20406;-58
2022/12/21 08:07:31;;;;;;;30.23;28.30;;;;;;;;;;5012750;28;20514;-58
2022/12/21 08:09:56;;;;;;;26.58;25.15;;;;;;;;;;5014216;28;20103;-59
2022/12/21 08:12:22;;;;;;;27.73;26.23;;;;;;;;;;5014123;28;20034;-59
2022/12/21 08:14:47;;;;;;;28.75;27.15;;;;;;;;;;5015087;28;20030;-60
2022/12/21 08:17:12;;;;;;;29.15;27.55;;;;;;;;;;5015973;28;20215;-60
2022/12/21 08:19:38;;;;;;;30.92;29.20;;;;;;;;;;5014789;28;20071;-59
2022/12/21 08:22:03;;;;;;;28.17;26.65;;;;;;;;;;5013978;28;20057;-59
2022/12/21 08:24:28;;;;;;;30.05;28.35;;;;;;;;;;5016666;28;20034;-59
2022/12/21 08:26:54;;;;;;;30.58;28.95;;;;;;;;;;5015388;28;20034;-59
2022/12/21 08:29:19;;;;;;;30.20;28.60;;;;;;;;;;5014606;28;20095;-59
2022/12/21 08:31:45;;;;;;;30.42;28.73;;;;;;;;;;5017765;28;20056;-58
2022/12/21 08:34:10;;;;;;;29.02;27.45;;;;;;;;;;5014242;28;20129;-58
2022/12/21 08:36:36;;;;;;;29.77;28.17;;;;;;;;;;5013105;28;20482;-59
2022/12/21 08:39:01;;;;;;;29.48;27.88;;;;;;;;;;5012174;28;20104;-59
2022/12/21 08:41:27;;;;;;;30.52;28.90;;;;;;;;;;5015221;28;20539;-58
2022/12/21 08:43:52;;;;;;;30.38;28.75;;;;;;;;;;5016449;28;20037;-59
2022/12/21 08:46:17;;;;;;;32.03;30.27;;;;;;;;;;5011302;28;20095;-59
2022/12/21 08:48:43;;;;;;;29.17;27.63;;;;;;;;;;5011895;28;20041;-60
2022/12/21 08:51:08;;;;;;;27.17;25.75;;;;;;;;;;5012393;28;20033;-59
2022/12/21 08:53:35;;;;;;;29.20;27.60;;;;;;;;;;5012650;28;20048;-59
2022/12/21 08:56:01;;;;;;;29.83;27.73;;;;;;;;;;5012786;28;20045;-59
2022/12/21 08:58:26;;;;;;;30.73;29.08;;;;;;;;;;5011405;28;20033;-59
2022/12/21 09:00:53;;;;;;;32.38;30.65;;;;;;;;;;5012653;28;20049;-60
2022/12/21 09:03:23;;;;;;;34.40;32.60;;;;;;;;;;5011584;28;20472;-59
2022/12/21 09:05:57;;;;;;;32.88;31.13;;;;;;;;;;5012524;28;20375;-58
2022/12/21 09:08:23;;;;;;;37.40;35.42;;;;;;;;;;5010815;28;20801;-58
2022/12/21 09:10:48;;;;;;;34.90;33.00;;;;;;;;;;5012858;28;20026;-58
2022/12/21 09:13:13;;;;;;;33.53;31.77;;;;;;;;;;5015709;28;20410;-58
2022/12/21 09:15:41;;;;;;;31.83;30.13;;;;;;;;;;5013655;28;20044;-58
2022/12/21 09:18:07;;;;;;;32.92;30.88;;;;;;;;;;5011526;28;20092;-58
2022/12/21 09:20:33;;;;;;;34.45;32.53;;;;;;;;;;5015739;28;20460;-58
2022/12/21 09:22:58;;;;;;;36.78;34.83;;;;;;;;;;5014429;28;20042;-59
2022/12/21 09:25:24;;;;;;;34.28;32.45;;;;;;;;;;5016184;28;20502;-58
2022/12/21 09:27:49;;;;;;;34.75;32.95;;;;;;;;;;5014491;28;20420;-58
2022/12/21 09:30:15;;;;;;;33.35;30.80;;;;;;;;;;5012818;28;20034;-59
2022/12/21 09:32:40;;;;;;;33.58;31.77;;;;;;;;;;5014712;28;20040;-59
2022/12/21 09:35:06;;;;;;;32.25;30.55;;;;;;;;;;5011216;28;20060;-58
2022/12/21 09:37:31;;;;;;;34.83;32.92;;;;;;;;;;5008812;28;20037;-59
2022/12/21 09:39:56;;;;;;;34.45;32.45;;;;;;;;;;5011913;28;20041;-58
2022/12/21 09:42:25;;;;;;;34.55;32.75;;;;;;;;;;5006581;28;20117;-59
2022/12/21 09:45:06;;;;;;;34.90;33.03;;;;;;;;;;5009957;28;20524;-59
2022/12/21 09:48:02;;;;;;;36.35;34.47;;;;;;;;;;5010444;28;20036;-59
2022/12/21 09:50:32;;;;;;;32.35;30.60;;;;;;;;;;5008856;28;20056;-59
2022/12/21 09:53:11;;;;;;;36.00;34.10;;;;;;;;;;5010426;28;20041;-59
2022/12/21 09:55:46;;;;;;;34.97;33.08;;;;;;;;;;5010123;28;20037;-58
2022/12/21 09:58:50;;;;;;;35.75;33.85;;;;;;;;;;5010285;28;20033;-59
2022/12/21 10:01:21;;;;;;;34.80;32.92;;;;;;;;;;4978745;28;20073;-58
2022/12/21 10:04:17;;;;;;;33.20;31.40;;;;;;;;;;5009928;28;20054;-59
2022/12/21 10:07:17;;;;;;;32.85;31.15;;;;;;;;;;5009754;28;20415;-59
2022/12/21 10:09:54;;;;;;;33.88;32.08;;;;;;;;;;5009321;28;20040;-59
2022/12/21 10:12:32;;;;;;;35.40;33.55;;;;;;;;;;5011709;28;20176;-59
2022/12/21 10:15:12;;;;;;;36.13;34.13;;;;;;;;;;5011024;28;20037;-59
2022/12/21 10:17:55;;;;;;;34.10;32.30;;;;;;;;;;5010639;28;20041;-58
2022/12/21 10:20:36;;;;;;;30.25;28.63;;;;;;;;;;5014531;28;20050;-59
2022/12/21 10:23:16;;;;;;;28.95;27.25;;;;;;;;;;5013483;28;20026;-59
2022/12/21 10:25:47;;;;;;;26.50;25.02;;;;;;;;;;5011657;28;20037;-59
2022/12/21 10:28:31;;;;;;;26.67;25.27;;;;;;;;;;5011371;28;20060;-59
2022/12/21 10:31:04;;;;;;;25.77;24.38;;;;;;;;;;5013241;28;20033;-59
2022/12/21 10:33:30;;;;;;;28.88;27.23;;;;;;;;;;5014914;28;20033;-59
2022/12/21 10:36:02;;;;;;;28.13;26.63;;;;;;;;;;5014286;28;20620;-59
2022/12/21 10:38:31;;;;;;;28.90;26.85;;;;;;;;;;5013230;28;20576;-59
2022/12/21 10:40:56;;;;;;;28.85;27.33;;;;;;;;;;5011458;28;20048;-59
2022/12/21 10:43:22;;;;;;;27.73;26.15;;;;;;;;;;5013393;28;20034;-59
2022/12/21 10:45:48;;;;;;;27.02;25.55;;;;;;;;;;5012532;28;20037;-59
2022/12/21 10:48:14;;;;;;;25.20;23.80;;;;;;;;;;5011561;28;20082;-59
2022/12/21 10:50:44;;;;;;;28.88;27.33;;;;;;;;;;5012430;28;20045;-59
2022/12/21 10:53:24;;;;;;;26.33;24.83;;;;;;;;;;5017156;28;20041;-59
2022/12/21 10:55:53;;;;;;;22.08;20.85;;;;;;;;;;5013187;28;20049;-59
2022/12/21 10:58:21;;;;;;;21.02;19.83;;;;;;;;;;5016620;28;20026;-59
2022/12/21 11:01:16;;;;;;;21.10;19.88;;;;;;;;;;5017001;28;20729;-59
2022/12/21 11:03:41;;;;;;;22.90;21.38;;;;;;;;;;5012085;28;20132;-59
2022/12/21 11:06:16;;;;;;;21.60;20.27;;;;;;;;;;5015805;28;20532;-59
2022/12/21 11:08:45;;;;;;;20.80;19.60;;;;;;;;;;5016060;28;20044;-59
2022/12/21 11:11:30;;;;;;;19.45;18.38;;;;;;;;;;5013892;28;20730;-59
2022/12/21 11:13:58;;;;;;;18.90;17.80;;;;;;;;;;5015451;28;20042;-60
2022/12/21 11:16:27;;;;;;;23.00;21.20;;;;;;;;;;5013584;28;20030;-60
2022/12/21 11:18:58;;;;;;;21.25;19.95;;;;;;;;;;5014911;28;20049;-60
2022/12/21 11:21:45;;;;;;;17.48;16.48;;;;;;;;;;5018361;28;20037;-60
2022/12/21 11:24:16;;;;;;;17.38;16.38;;;;;;;;;;5017289;28;20128;-60
2022/12/21 11:26:59;;;;;;;16.58;15.63;;;;;;;;;;5016453;28;20151;-58
2022/12/21 11:29:31;;;;;;;19.65;18.55;;;;;;;;;;5013256;28;20033;-58
2022/12/21 11:32:04;;;;;;;19.42;18.30;;;;;;;;;;5013132;28;20030;-59
2022/12/21 11:34:39;;;;;;;21.80;20.60;;;;;;;;;;5014334;28;20156;-59
2022/12/21 11:37:25;;;;;;;20.38;19.27;;;;;;;;;;5014333;28;20056;-59
2022/12/21 11:39:50;;;;;;;21.30;19.52;;;;;;;;;;5007644;28;20460;-59
2022/12/21 11:42:19;;;;;;;19.00;17.95;;;;;;;;;;5013554;28;20049;-60
2022/12/21 11:44:45;;;;;;;21.08;19.77;;;;;;;;;;5017335;28;20040;-60
2022/12/21 11:47:27;;;;;;;20.08;18.92;;;;;;;;;;5017184;28;20529;-59
2022/12/21 11:50:17;;;;;;;19.63;18.52;;;;;;;;;;5019683;28;20033;-60
2022/12/21 11:52:48;;;;;;;18.45;17.45;;;;;;;;;;5020719;28;20038;-59
2022/12/21 11:55:19;;;;;;;18.45;17.45;;;;;;;;;;5018989;28;20055;-59
2022/12/21 11:58:12;;;;;;;20.10;19.00;;;;;;;;;;5013642;28;20101;-59
2022/12/21 12:01:04;;;;;;;18.52;17.42;;;;;;;;;;5015770;28;20029;-60
2022/12/21 12:03:41;;;;;;;18.80;17.70;;;;;;;;;;5015362;28;20040;-61
2022/12/21 12:06:07;;;;;;;19.02;17.92;;;;;;;;;;5015309;28;20380;-59
2022/12/21 12:08:46;;;;;;;18.63;17.52;;;;;;;;;;5010966;28;20041;-62
2022/12/21 12:11:42;;;;;;;18.65;17.55;;;;;;;;;;5014671;28;20060;-60
2022/12/21 12:14:22;;;;;;;17.92;16.92;;;;;;;;;;5014084;28;20363;-60
2022/12/21 12:17:15;;;;;;;20.33;19.23;;;;;;;;;;5015200;28;20413;-61
2022/12/21 12:20:02;;;;;;;17.90;16.90;;;;;;;;;;5012568;28;20078;-62
2022/12/21 12:22:38;;;;;;;17.67;16.67;;;;;;;;;;5013628;28;20030;-62
2022/12/21 12:25:13;;;;;;;16.98;15.98;;;;;;;;;;5013193;28;20046;-61
2022/12/21 12:27:56;;;;;;;17.80;16.70;;;;;;;;;;5014571;28;20092;-61
2022/12/21 12:30:24;;;;;;;17.65;16.65;;;;;;;;;;5013709;28;20380;-61
2022/12/21 12:33:02;;;;;;;19.58;18.48;;;;;;;;;;5012419;28;20033;-61
2022/12/21 12:35:43;;;;;;;22.05;20.20;;;;;;;;;;5013654;28;20096;-60
2022/12/21 12:38:35;;;;;;;19.88;18.70;;;;;;;;;;5014263;28;20059;-61
2022/12/21 12:41:13;;;;;;;20.33;19.20;;;;;;;;;;5014560;28;20045;-61
2022/12/21 12:43:54;;;;;;;19.42;18.33;;;;;;;;;;5016725;28;20058;-60
2022/12/21 12:46:46;;;;;;;18.83;17.73;;;;;;;;;;5011271;28;20033;-61
2022/12/21 12:49:27;;;;;;;18.95;17.88;;;;;;;;;;4994440;28;20080;-60
2022/12/21 12:52:03;;;;;;;18.00;16.98;;;;;;;;;;5013115;28;20041;-61
2022/12/21 12:55:14;;;;;;;21.10;19.90;;;;;;;;;;5015636;28;20042;-60
2022/12/21 12:58:05;;;;;;;21.40;20.17;;;;;;;;;;5014651;28;20509;-59
2022/12/21 13:00:45;;;;;;;21.95;20.75;;;;;;;;;;5015119;28;20029;-60
2022/12/21 13:03:51;;;;;;;19.42;18.33;;;;;;;;;;5016621;28;20025;-60
2022/12/21 13:06:35;;;;;;;17.67;16.67;;;;;;;;;;5014142;28;20029;-62
2022/12/21 13:09:37;;;;;;;17.75;16.75;;;;;;;;;;5011699;28;20038;-60
2022/12/21 13:12:16;;;;;;;18.27;17.23;;;;;;;;;;5013696;28;20060;-59
2022/12/21 13:14:53;;;;;;;18.10;17.02;;;;;;;;;;5015441;28;20410;-60
2022/12/21 13:17:21;;;;;;;19.50;18.42;;;;;;;;;;5019860;28;20699;-60
2022/12/21 13:19:48;;;;;;;20.98;19.67;;;;;;;;;;5013273;28;20553;-61
2022/12/21 13:22:17;;;;;;;21.73;20.55;;;;;;;;;;5014734;28;20048;-59
2022/12/21 13:24:55;;;;;;;22.73;21.42;;;;;;;;;;5013491;28;20045;-60
2022/12/21 13:27:26;;;;;;;24.48;22.80;;;;;;;;;;5012686;28;20068;-61
2022/12/21 13:30:17;;;;;;;21.80;20.60;;;;;;;;;;5014226;28;20033;-61
2022/12/21 13:32:55;;;;;;;20.63;19.35;;;;;;;;;;5012193;28;20061;-61
2022/12/21 13:35:58;;;;;;;20.38;19.23;;;;;;;;;;5012719;28;20029;-61
2022/12/21 13:38:34;;;;;;;20.23;19.13;;;;;;;;;;5000370;28;20161;-60
2022/12/21 13:41:04;;;;;;;16.80;15.85;;;;;;;;;;5001322;28;20034;-61
2022/12/21 13:43:46;;;;;;;19.35;18.25;;;;;;;;;;5008382;28;20056;-60
2022/12/21 13:46:12;;;;;;;19.40;18.33;;;;;;;;;;5010882;28;20076;-60
2022/12/21 13:48:43;;;;;;;20.10;18.95;;;;;;;;;;5011948;28;20087;-61
2022/12/21 13:51:32;;;;;;;19.73;18.63;;;;;;;;;;5013302;28;20037;-61
2022/12/21 13:54:09;;;;;;;17.88;16.85;;;;;;;;;;5016535;28;20037;-60
2022/12/21 13:57:03;;;;;;;19.20;18.10;;;;;;;;;;5012474;28;20087;-61
2022/12/21 13:59:55;;;;;;;20.13;18.83;;;;;;;;;;5011039;28;20418;-60
2022/12/21 14:03:12;;;;;;;18.77;17.65;;;;;;;;;;5012623;28;20033;-59
2022/12/21 14:05:57;;;;;;;17.98;16.88;;;;;;;;;;5001311;28;20052;-58
2022/12/21 14:08:49;;;;;;;17.73;16.73;;;;;;;;;;5010564;28;20106;-58
2022/12/21 14:11:52;;;;;;;19.33;18.23;;;;;;;;;;5011185;28;20037;-60
2022/12/21 14:14:17;;;;;;;18.88;17.80;;;;;;;;;;5012573;28;20547;-60
2022/12/21 14:16:43;;;;;;;18.80;17.77;;;;;;;;;;5011732;28;20040;-60
2022/12/21 14:19:21;;;;;;;18.75;17.70;;;;;;;;;;5011084;28;20033;-60
2022/12/21 14:21:48;;;;;;;18.88;17.83;;;;;;;;;;5014201;28;20509;-60
2022/12/21 14:24:26;;;;;;;20.02;18.92;;;;;;;;;;5013217;28;20132;-60
2022/12/21 14:26:57;;;;;;;18.67;17.58;;;;;;;;;;5012071;28;20041;-60
2022/12/21 14:29:30;;;;;;;17.63;16.63;;;;;;;;;;5013119;28;20038;-60
2022/12/21 14:32:12;;;;;;;18.77;17.77;;;;;;;;;;5014301;28;20041;-60
2022/12/21 14:34:48;;;;;;;17.33;16.33;;;;;;;;;;5016650;28;20037;-60
2022/12/21 14:37:13;;;;;;;17.90;16.90;;;;;;;;;;5015431;28;20120;-60
2022/12/21 14:39:41;;;;;;;17.95;16.85;;;;;;;;;;5016868;28;20124;-60
2022/12/21 14:42:29;;;;;;;18.13;17.02;;;;;;;;;;5018934;28;20060;-61
2022/12/21 14:45:33;;;;;;;17.85;16.85;;;;;;;;;;5017010;28;20033;-60
2022/12/21 14:48:22;;;;;;;17.02;16.02;;;;;;;;;;5012700;28;20037;-60
2022/12/21 14:50:58;;;;;;;17.55;16.40;;;;;;;;;;5017744;28;20065;-60
2022/12/21 14:53:26;;;;;;;18.90;17.60;;;;;;;;;;5016090;28;20033;-60
2022/12/21 14:56:22;;;;;;;19.10;18.02;;;;;;;;;;5013185;28;20427;-60
2022/12/21 14:58:58;;;;;;;17.77;16.77;;;;;;;;;;5013902;28;20099;-60
2022/12/21 15:01:59;;;;;;;17.48;16.48;;;;;;;;;;5017994;28;20029;-60
2022/12/21 15:04:29;;;;;;;16.58;15.68;;;;;;;;;;5013069;28;20467;-60